Irvine, Florida
Current Conditions -  °F | °C
As of 1:35 AM on Wednesday 26 Nov 2014 (Local Time) from KOCF Reporting Station
Overcast Overcast  
Wind Chill: 18°   Ceiling: 400
Heat Index: 18°   Visibility: 3mi
Dew Point: 17°   Wind: 7mph
Humidity: 94%   Direction: 320°NW
Pressure: 29.86"   Gusts: NA
Location:  29.3919°N, 82.2811°W
Report Text: KOCF 260635Z AUTO 32006KT 3SM OVC004 18/17 A2986 RMK AO1
Loading
Personal Weather Stations






























Interactive Weather Map New forecast layout! Learn more

10-Day Weather Forecast

Advertisements
Track Severe Weather on mobile